Time;durP1;ratioP1;P1;durP2;ratioP2;P2;SDS_P1;SDS_P2;PMS_P1;PMS_P2;Temp;Humidity;BMP_temperature;BMP_pressure;BME280_temperature;BME280_humidity;BME280_pressure;Samples;Min_cycle;Max_cycle;Signal;HPM_P1;HPM_P2
2023/11/22 00:00:20;;;;;;;12.98;8.90;;;;;;;11.65;67.43;98648.28;6110108;23;19998;-95
2023/11/22 00:02:47;;;;;;;9.40;6.95;;;;;;;11.63;67.91;98653.97;6086788;23;20028;-96
2023/11/22 00:05:12;;;;;;;11.77;8.50;;;;;;;11.59;67.65;98646.78;6109682;23;20041;-96
2023/11/22 00:07:38;;;;;;;14.55;8.98;;;;;;;11.50;68.12;98639.34;6109665;23;20499;-95
2023/11/22 00:10:05;;;;;;;13.45;9.02;;;;;;;11.50;68.35;98633.94;6110288;23;20020;-95
2023/11/22 00:12:40;;;;;;;13.07;9.90;;;;;;;11.48;68.22;98635.34;6110207;23;20487;-94
2023/11/22 00:15:06;;;;;;;13.88;9.23;;;;;;;11.52;68.45;98644.44;6087760;23;20002;-95
2023/11/22 00:17:34;;;;;;;12.68;9.00;;;;;;;11.45;68.50;98644.00;6110557;23;20380;-95
2023/11/22 00:20:03;;;;;;;11.80;7.82;;;;;;;11.57;68.36;98676.72;6087167;23;20423;-94
2023/11/22 00:22:32;;;;;;;11.85;7.97;;;;;;;11.37;68.40;98648.19;6089002;23;20002;-95
2023/11/22 00:24:58;;;;;;;10.32;7.50;;;;;;;11.47;68.52;98674.16;6113738;23;20357;-94
2023/11/22 00:27:23;;;;;;;11.45;7.90;;;;;;;11.42;68.42;98668.84;6085373;23;20006;-94
2023/11/22 00:29:50;;;;;;;11.45;7.53;;;;;;;11.37;68.96;98663.53;6110251;23;19998;-94
2023/11/22 00:32:16;;;;;;;12.48;8.43;;;;;;;11.25;69.21;98651.28;6087376;23;19993;-95
2023/11/22 00:34:41;;;;;;;13.52;8.18;;;;;;;11.41;68.97;98653.75;6110419;23;20028;-95
2023/11/22 00:37:08;;;;;;;12.43;8.15;;;;;;;11.33;69.25;98663.31;6086207;23;20052;-95
2023/11/22 00:39:33;;;;;;;13.52;8.63;;;;;;;11.27;69.29;98654.50;6109060;23;20002;-95
2023/11/22 00:41:59;;;;;;;11.70;7.57;;;;;;;11.26;69.33;98654.78;6084589;23;20006;-94
2023/11/22 00:44:25;;;;;;;11.15;7.43;;;;;;;11.31;69.41;98681.69;6087577;23;20016;-96
2023/11/22 00:46:50;;;;;;;10.82;7.43;;;;;;;11.24;69.56;98665.84;6109404;23;20029;-96
2023/11/22 00:49:16;;;;;;;11.48;7.32;;;;;;;11.25;69.29;98677.44;6109826;23;19997;-95
2023/11/22 00:51:42;;;;;;;9.57;7.03;;;;;;;11.09;69.29;98660.66;6111207;23;19998;-96
2023/11/22 00:54:07;;;;;;;10.10;7.25;;;;;;;11.11;69.66;98677.34;6086361;23;20002;-95
2023/11/22 00:56:33;;;;;;;10.05;7.68;;;;;;;11.11;69.93;98691.63;6109822;23;20033;-95
2023/11/22 00:58:59;;;;;;;11.07;7.70;;;;;;;11.02;70.00;98665.59;6109947;23;19992;-95
2023/11/22 01:01:25;;;;;;;9.82;7.63;;;;;;;11.16;69.59;98681.84;6109590;23;20006;-95
2023/11/22 01:03:51;;;;;;;11.02;7.55;;;;;;;11.17;69.46;98678.88;6109357;23;20005;-95
2023/11/22 01:06:18;;;;;;;13.10;7.32;;;;;;;11.20;69.58;98696.38;6085913;23;20433;-95
2023/11/22 01:08:43;;;;;;;10.52;7.70;;;;;;;11.12;69.58;98676.25;6110639;23;20001;-96
2023/11/22 01:11:10;;;;;;;10.73;7.72;;;;;;;11.05;70.20;98687.38;6109981;23;20002;-96
2023/11/22 01:13:40;;;;;;;11.23;7.53;;;;;;;10.92;70.66;98678.09;6109089;23;20001;-95
2023/11/22 01:16:10;;;;;;;11.48;7.75;;;;;;;11.01;70.58;98691.72;6112394;23;19993;-95
2023/11/22 01:18:35;;;;;;;9.55;7.05;;;;;;;11.00;70.49;98675.84;6109503;23;20006;-95
2023/11/22 01:21:01;;;;;;;15.18;8.05;;;;;;;11.03;70.16;98686.88;6086523;23;20001;-95
2023/11/22 01:23:29;;;;;;;11.35;7.65;;;;;;;11.06;70.05;98686.31;6084186;23;20011;-96
2023/11/22 01:25:55;;;;;;;9.65;6.95;;;;;;;10.98;70.08;98676.16;6110317;23;20009;-95
2023/11/22 01:28:21;;;;;;;10.30;7.40;;;;;;;10.94;70.18;98663.56;6109681;23;20017;-94
2023/11/22 01:30:47;;;;;;;9.13;7.30;;;;;;;11.02;69.66;98666.41;6110347;23;20001;-95
2023/11/22 01:33:13;;;;;;;10.88;7.45;;;;;;;11.03;69.74;98662.63;6085522;23;20001;-96
2023/11/22 01:35:40;;;;;;;11.15;7.05;;;;;;;10.84;70.89;98670.66;6109415;23;20001;-95
2023/11/22 01:38:05;;;;;;;10.20;7.47;;;;;;;10.93;70.78;98670.81;6109734;23;20017;-96
2023/11/22 01:40:31;;;;;;;11.38;7.43;;;;;;;10.93;70.27;98651.97;6107849;23;20002;-95
2023/11/22 01:42:58;;;;;;;9.85;7.63;;;;;;;11.07;70.18;98670.94;6084040;23;20001;-96
2023/11/22 01:45:23;;;;;;;13.30;8.15;;;;;;;11.04;70.06;98664.25;6107995;23;20005;-96
2023/11/22 01:47:49;;;;;;;12.38;7.40;;;;;;;10.99;70.16;98669.66;6085303;23;20044;-96
2023/11/22 01:50:16;;;;;;;9.35;7.22;;;;;;;11.00;70.17;98679.38;6087309;23;20024;-96
2023/11/22 01:52:42;;;;;;;9.32;6.85;;;;;;;10.94;70.22;98685.91;6109300;23;20001;-95
2023/11/22 01:55:09;;;;;;;9.40;7.45;;;;;;;10.91;70.60;98689.16;6085602;23;20006;-96
2023/11/22 01:57:37;;;;;;;10.10;7.32;;;;;;;10.86;70.50;98681.94;6086255;23;20487;-96
2023/11/22 02:00:04;;;;;;;10.02;6.82;;;;;;;11.00;70.51;98713.56;6085395;23;20092;-95
2023/11/22 02:02:30;;;;;;;9.70;6.78;;;;;;;10.84;69.82;98680.63;6135908;23;20447;-96
2023/11/22 02:04:56;;;;;;;11.75;7.40;;;;;;;10.84;70.70;98683.34;6109298;23;20032;-96
2023/11/22 02:07:21;;;;;;;10.88;7.05;;;;;;;10.78;70.36;98677.19;6136235;23;19997;-93
2023/11/22 02:09:47;;;;;;;11.85;7.25;;;;;;;10.72;70.60;98676.44;6110065;23;20426;-96
2023/11/22 02:12:12;;;;;;;9.27;7.35;;;;;;;10.79;70.43;98665.34;6134786;23;20358;-95
2023/11/22 02:14:38;;;;;;;10.57;6.68;;;;;;;10.72;70.18;98668.38;6112696;23;19997;-95
2023/11/22 02:17:05;;;;;;;9.70;7.30;;;;;;;10.88;70.20;98693.25;6087691;23;20344;-95
2023/11/22 02:19:30;;;;;;;10.75;7.43;;;;;;;11.01;69.94;98699.03;6136188;23;19997;-95
2023/11/22 02:21:56;;;;;;;10.38;7.00;;;;;;;10.87;69.73;98688.13;6136693;23;20008;-96
2023/11/22 02:24:22;;;;;;;12.05;7.05;;;;;;;10.95;69.71;98698.28;6110684;23;19982;-94
2023/11/22 02:26:47;;;;;;;10.00;6.30;;;;;;;11.01;69.09;98701.72;6112505;23;20005;-94
2023/11/22 02:29:13;;;;;;;9.43;6.28;;;;;;;10.85;68.69;98682.22;6162519;23;20001;-95
2023/11/22 02:31:44;;;;;;;7.55;6.00;;;;;;;11.01;68.49;98707.09;6111760;23;20064;-95
2023/11/22 02:34:10;;;;;;;9.10;6.13;;;;;;;11.03;68.43;98711.09;6137274;23;20064;-95
2023/11/22 02:36:36;;;;;;;8.50;5.80;;;;;;;10.94;68.40;98696.69;6111255;23;20025;-95
2023/11/22 02:39:02;;;;;;;8.48;5.82;;;;;;;10.97;68.22;98688.00;6136705;23;20032;-94
2023/11/22 02:41:29;;;;;;;8.70;6.05;;;;;;;10.90;68.29;98688.38;6086872;23;20425;-95
2023/11/22 02:47:17;;;;;;;8.27;5.95;;;;;;;10.94;68.03;98675.13;6162460;23;20024;-94
2023/11/22 02:49:42;;;;;;;9.27;6.40;;;;;;;10.96;69.02;98680.22;6112193;23;20021;-94
2023/11/22 02:52:08;;;;;;;13.02;7.05;;;;;;;10.87;68.64;98667.41;6159874;23;20025;-94
2023/11/22 02:54:34;;;;;;;12.35;7.38;;;;;;;10.91;68.67;98670.31;6110919;23;19997;-96
2023/11/22 02:57:00;;;;;;;10.73;8.25;;;;;;;10.90;68.76;98669.50;6111920;23;20002;-93
2023/11/22 02:59:26;;;;;;;10.52;7.75;;;;;;;10.74;69.33;98654.63;6110870;23;20002;-95
2023/11/22 03:01:51;;;;;;;12.75;8.38;;;;;;;10.83;69.39;98661.00;6110942;23;20496;-94
2023/11/22 03:04:17;;;;;;;13.25;9.18;;;;;;;10.79;69.52;98659.13;6113261;23;20009;-94
2023/11/22 03:06:43;;;;;;;13.02;8.63;;;;;;;10.91;69.68;98697.25;6112681;23;19993;-94
2023/11/22 03:09:08;;;;;;;14.95;8.25;;;;;;;10.70;69.41;98659.78;6087704;23;20004;-94
2023/11/22 03:11:34;;;;;;;15.10;8.60;;;;;;;10.79;69.28;98670.75;6087046;23;20001;-93
2023/11/22 03:14:03;;;;;;;10.75;7.78;;;;;;;10.95;69.76;98697.47;6088225;23;20001;-93
2023/11/22 03:16:31;;;;;;;12.75;8.10;;;;;;;10.91;70.01;98692.69;6089471;23;20012;-94
2023/11/22 03:18:58;;;;;;;11.65;7.47;;;;;;;10.82;69.81;98688.19;6137590;23;20037;-94
2023/11/22 03:21:26;;;;;;;10.40;7.78;;;;;;;10.79;69.77;98703.06;6087659;23;20352;-96
2023/11/22 03:23:51;;;;;;;9.73;7.65;;;;;;;10.78;69.92;98706.81;6109498;23;19997;-91
2023/11/22 03:26:17;;;;;;;9.80;7.50;;;;;;;10.74;69.96;98703.09;6107286;23;20056;-91
2023/11/22 03:28:43;;;;;;;13.48;8.02;;;;;;;10.68;70.53;98694.25;6082863;23;20013;-91
2023/11/22 03:31:09;;;;;;;12.73;7.65;;;;;;;10.62;70.54;98684.63;6157406;23;20001;-90
2023/11/22 03:33:35;;;;;;;11.00;7.72;;;;;;;10.84;70.39;98710.25;6108272;23;19997;-91
2023/11/22 03:36:02;;;;;;;13.52;8.43;;;;;;;10.66;70.65;98691.03;6132347;23;20012;-90
2023/11/22 03:38:27;;;;;;;12.27;7.95;;;;;;;10.70;70.64;98704.75;6107380;23;20008;-91
2023/11/22 03:40:53;;;;;;;11.38;8.27;;;;;;;10.70;70.34;98715.50;6083736;23;20059;-91
2023/11/22 03:43:19;;;;;;;12.95;7.85;;;;;;;10.75;70.30;98715.47;6083858;23;20002;-90
2023/11/22 03:45:45;;;;;;;11.80;8.55;;;;;;;10.74;69.76;98694.22;6084130;23;20005;-91
2023/11/22 03:48:10;;;;;;;10.68;7.47;;;;;;;10.75;70.05;98710.09;6083620;23;20106;-90
2023/11/22 03:50:36;;;;;;;11.73;8.18;;;;;;;10.75;69.80;98693.13;6106833;23;20360;-91
2023/11/22 03:53:01;;;;;;;15.73;11.07;;;;;;;10.68;70.57;98699.63;6082858;23;20009;-90
2023/11/22 03:55:27;;;;;;;13.95;9.63;;;;;;;10.55;71.33;98699.53;6083445;23;20005;-90
2023/11/22 03:57:53;;;;;;;15.48;10.05;;;;;;;10.56;71.20;98693.84;6084300;23;20080;-90
2023/11/22 04:00:19;;;;;;;17.02;8.88;;;;;;;10.58;71.08;98717.78;6084043;23;20006;-90
2023/11/22 04:02:44;;;;;;;17.65;9.68;;;;;;;10.72;70.75;98719.53;6107534;23;20001;-90
2023/11/22 04:05:11;;;;;;;17.10;9.70;;;;;;;10.69;71.12;98717.41;6107847;23;20056;-91
2023/11/22 04:07:38;;;;;;;10.10;8.25;;;;;;;10.55;71.31;98708.41;6107768;23;20060;-91
2023/11/22 04:10:05;;;;;;;11.73;8.68;;;;;;;10.43;71.13;98698.00;6108769;23;20016;-91
2023/11/22 04:12:32;;;;;;;14.18;9.63;;;;;;;10.60;70.97;98740.66;6107453;23;20002;-91
2023/11/22 04:14:57;;;;;;;17.25;9.35;;;;;;;10.47;71.59;98728.66;6108764;23;19997;-91
2023/11/22 04:17:23;;;;;;;12.45;9.43;;;;;;;10.46;70.99;98715.50;6107895;23;20001;-91
2023/11/22 04:19:48;;;;;;;11.55;8.20;;;;;;;10.45;70.73;98714.69;6107344;23;20083;-91
2023/11/22 04:22:16;;;;;;;12.13;8.27;;;;;;;10.48;70.87;98721.41;6083354;23;20005;-90
2023/11/22 04:24:42;;;;;;;9.95;7.38;;;;;;;10.49;70.24;98723.00;6084369;23;20038;-91
2023/11/22 04:27:08;;;;;;;13.73;7.55;;;;;;;10.58;70.41;98726.66;6107253;23;20072;-92
2023/11/22 04:29:33;;;;;;;11.10;6.70;;;;;;;10.58;69.51;98726.66;6107356;23;20006;-91
2023/11/22 04:31:59;;;;;;;11.70;7.15;;;;;;;10.58;69.28;98736.63;6132493;23;20001;-91
2023/11/22 04:34:24;;;;;;;12.60;6.00;;;;;;;10.53;69.16;98724.03;6106535;23;20001;-91
2023/11/22 04:36:50;;;;;;;9.07;6.57;;;;;;;10.55;69.19;98729.94;6106390;23;20437;-91
2023/11/22 04:39:15;;;;;;;15.98;7.65;;;;;;;10.55;69.02;98735.31;6082852;23;19986;-90
2023/11/22 04:41:42;;;;;;;10.73;6.57;;;;;;;10.67;68.83;98749.19;6131071;23;20021;-91
2023/11/22 04:44:08;;;;;;;11.75;6.70;;;;;;;10.73;68.80;98758.03;6082670;23;20012;-91
2023/11/22 04:46:34;;;;;;;11.77;7.10;;;;;;;10.62;69.51;98746.53;6131403;23;20014;-90
2023/11/22 04:49:00;;;;;;;11.55;7.25;;;;;;;10.58;69.89;98745.50;6131140;23;20001;-90
2023/11/22 04:51:29;;;;;;;12.20;6.95;;;;;;;10.44;70.70;98752.66;6083145;23;20096;-95
2023/11/22 04:53:57;;;;;;;14.02;8.10;;;;;;;10.42;71.03;98749.44;6113630;23;20005;-96
2023/11/22 04:56:23;;;;;;;17.60;8.93;;;;;;;10.14;72.38;98756.38;6098220;23;20052;-95
2023/11/22 04:58:48;;;;;;;13.55;8.38;;;;;;;10.24;72.01;98773.22;6118215;23;20409;-96
2023/11/22 05:01:19;;;;;;;12.77;8.32;;;;;;;10.24;71.78;98759.78;6091232;23;20032;-95
2023/11/22 05:03:46;;;;;;;14.00;8.20;;;;;;;10.20;71.95;98764.09;6117652;23;20032;-96
2023/11/22 05:06:12;;;;;;;14.80;9.25;;;;;;;10.20;72.18;98757.94;6118113;23;19997;-95
2023/11/22 05:08:38;;;;;;;32.55;15.35;;;;;;;10.23;72.37;98768.94;6142898;23;20009;-95
2023/11/22 05:11:04;;;;;;;17.50;10.30;;;;;;;10.10;71.88;98748.03;6117741;23;20007;-95
2023/11/22 05:13:30;;;;;;;24.27;10.10;;;;;;;10.32;71.96;98771.84;6092345;23;19997;-96
2023/11/22 05:15:56;;;;;;;17.13;9.35;;;;;;;10.38;71.28;98786.88;6092463;23;20002;-96
2023/11/22 05:18:25;;;;;;;13.35;8.57;;;;;;;10.31;71.49;98795.28;6115898;23;19998;-94
2023/11/22 05:20:51;;;;;;;17.73;8.40;;;;;;;10.36;70.95;98799.03;6110368;23;20081;-92
2023/11/22 05:23:18;;;;;;;15.13;9.00;;;;;;;10.40;71.13;98803.56;6083753;23;20025;-93
2023/11/22 05:25:43;;;;;;;17.95;9.40;;;;;;;10.32;71.80;98813.03;6084075;23;20038;-93
2023/11/22 05:28:09;;;;;;;13.98;9.05;;;;;;;10.42;71.62;98819.44;6085427;23;20001;-93
2023/11/22 05:30:35;;;;;;;17.80;10.63;;;;;;;10.43;71.38;98827.19;6088761;23;20012;-94
2023/11/22 05:33:08;;;;;;;18.13;10.45;;;;;;;10.36;71.89;98823.25;6086982;23;19998;-94
2023/11/22 05:35:33;;;;;;;18.67;10.40;;;;;;;10.21;72.68;98824.91;6087498;23;20011;-93
2023/11/22 05:38:08;;;;;;;19.15;9.57;;;;;;;10.10;72.72;98818.78;6112258;23;20029;-96
2023/11/22 05:40:36;;;;;;;16.92;8.07;;;;;;;10.14;72.99;98832.47;6111874;23;20053;-95
2023/11/22 05:43:02;;;;;;;18.60;9.90;;;;;;;10.18;72.36;98843.50;6085602;23;20008;-94
2023/11/22 05:45:27;;;;;;;16.45;9.55;;;;;;;10.34;72.42;98863.88;6085196;23;19997;-96
2023/11/22 05:47:53;;;;;;;19.58;10.50;;;;;;;10.07;72.91;98848.94;6084815;23;20001;-94
2023/11/22 05:50:19;;;;;;;19.77;10.05;;;;;;;10.28;72.52;98856.88;6110943;23;20020;-93
2023/11/22 05:52:44;;;;;;;22.38;11.95;;;;;;;10.21;72.34;98845.63;6110788;23;20061;-93
2023/11/22 05:55:13;;;;;;;20.95;13.27;;;;;;;10.31;72.29;98849.09;6087720;23;20002;-94
2023/11/22 05:57:40;;;;;;;25.95;12.23;;;;;;;10.41;73.13;98877.00;6111524;23;20005;-92
2023/11/22 06:00:07;;;;;;;23.33;12.27;;;;;;;10.25;72.96;98844.81;6111580;23;20084;-95
2023/11/22 06:02:32;;;;;;;21.48;12.60;;;;;;;10.31;72.65;98851.78;6087188;23;20353;-94
2023/11/22 06:04:58;;;;;;;20.20;10.85;;;;;;;10.30;72.62;98844.78;6111478;23;20010;-92
2023/11/22 06:07:24;;;;;;;26.10;13.48;;;;;;;10.26;72.29;98842.91;6131904;23;20025;-91
2023/11/22 06:09:49;;;;;;;21.45;12.07;;;;;;;10.33;72.78;98867.63;6108889;23;20106;-93
2023/11/22 06:12:15;;;;;;;14.90;10.48;;;;;;;10.40;72.60;98873.53;6085035;23;19997;-93
2023/11/22 06:15:04;;;;;;;15.18;10.15;;;;;;;10.47;72.41;98892.03;6084117;23;20005;-92
2023/11/22 06:17:30;;;;;;;22.60;10.02;;;;;;;10.29;72.09;98864.72;6135468;23;19998;-92
2023/11/22 06:19:56;;;;;;;23.23;11.27;;;;;;;10.27;72.66;98869.53;6159380;23;20001;-91
2023/11/22 06:22:27;;;;;;;17.33;9.95;;;;;;;10.16;72.66;98865.28;6085399;23;20081;-93
2023/11/22 06:24:53;;;;;;;15.95;10.43;;;;;;;10.33;72.17;98889.16;6108974;23;20005;-92
2023/11/22 06:27:19;;;;;;;16.38;9.60;;;;;;;10.34;71.83;98874.63;6084370;23;20001;-93
2023/11/22 06:29:44;;;;;;;20.55;12.25;;;;;;;10.08;73.23;98855.13;6083836;23;20005;-92
2023/11/22 06:32:10;;;;;;;16.73;9.18;;;;;;;10.28;72.18;98876.53;6084055;23;20013;-92
2023/11/22 06:34:36;;;;;;;11.93;9.18;;;;;;;10.38;71.79;98861.44;6085077;23;20001;-92
2023/11/22 06:37:02;;;;;;;24.00;12.23;;;;;;;10.43;72.05;98885.59;6108615;23;20002;-90
2023/11/22 06:39:28;;;;;;;22.95;12.25;;;;;;;10.64;71.69;98908.59;6085786;23;20201;-94
2023/11/22 06:41:53;;;;;;;22.42;11.13;;;;;;;10.77;71.65;98927.91;6086230;23;20100;-93
2023/11/22 06:44:22;;;;;;;44.10;27.42;;;;;;;10.57;71.99;98880.41;6087269;23;20083;-92
2023/11/22 06:46:47;;;;;;;18.85;11.57;;;;;;;10.72;71.88;98904.50;6087779;23;20001;-93
2023/11/22 06:49:29;;;;;;;23.30;10.07;;;;;;;10.96;70.90;98939.63;6114771;23;20016;-95
2023/11/22 06:52:13;;;;;;;17.95;10.73;;;;;;;11.03;70.39;98937.41;6118769;23;20008;-96
2023/11/22 06:54:44;;;;;;;19.23;11.48;;;;;;;11.02;70.66;98924.22;6083939;23;20012;-94
2023/11/22 06:57:09;;;;;;;43.97;21.58;;;;;;;10.85;72.56;98920.06;6088257;23;20001;-94
2023/11/22 06:59:35;;;;;;;27.02;15.60;;;;;;;10.82;71.98;98911.72;6084469;23;20405;-92
2023/11/22 07:02:01;;;;;;;25.20;15.32;;;;;;;11.12;71.48;98946.50;6108192;23;20081;-93
2023/11/22 07:04:27;;;;;;;22.17;13.55;;;;;;;11.09;71.04;98936.28;6083692;23;20013;-92
2023/11/22 07:06:54;;;;;;;23.58;12.77;;;;;;;10.99;71.29;98930.97;6108448;23;20404;-93
2023/11/22 07:09:21;;;;;;;24.42;12.85;;;;;;;11.06;71.62;98950.31;6134353;23;20007;-94
2023/11/22 07:12:07;;;;;;;21.52;12.70;;;;;;;11.13;71.65;98934.63;6086908;23;19985;-93
2023/11/22 07:14:37;;;;;;;25.98;15.23;;;;;;;11.36;70.58;98956.53;6138029;23;20025;-94
2023/11/22 07:17:08;;;;;;;22.58;12.68;;;;;;;11.48;70.43;98965.03;6110436;23;20448;-92
2023/11/22 07:19:46;;;;;;;19.85;14.38;;;;;;;11.43;70.16;98924.63;6105118;23;20017;-91
2023/11/22 07:22:31;;;;;;;16.52;11.10;;;;;;;11.46;68.93;98940.25;6111544;23;20008;-93
2023/11/22 07:25:25;;;;;;;17.38;10.35;;;;;;;11.51;68.89;98948.28;6088999;23;20399;-95
2023/11/22 07:28:05;;;;;;;;;;;;;;;;;;;;;
2023/11/22 07:30:41;;;;;;;18.17;9.38;;;;;;;11.34;69.59;98953.31;6135488;23;20053;-94
2023/11/22 07:33:07;;;;;;;15.60;8.70;;;;;;;11.28;69.34;98957.94;6075519;23;20003;-93
2023/11/22 07:35:40;;;;;;;20.48;10.68;;;;;;;11.11;69.66;98936.00;6025861;23;20053;-93
2023/11/22 07:38:08;;;;;;;19.10;11.80;;;;;;;11.39;69.65;98963.22;6054092;23;20007;-94
2023/11/22 07:47:05;;;;;;;30.23;15.37;;;;;;;11.19;71.24;98975.81;6040712;23;20058;-94
2023/11/22 07:49:43;;;;;;;14.98;10.90;;;;;;;10.78;71.56;98965.34;6054728;23;20014;-96
2023/11/22 07:52:29;;;;;;;15.18;10.57;;;;;;;10.75;71.66;98963.22;6063002;23;19994;-95
2023/11/22 07:54:57;;;;;;;21.13;12.82;;;;;;;10.85;71.86;98973.09;6053893;23;20065;-92
2023/11/22 07:57:25;;;;;;;17.75;11.45;;;;;;;11.08;71.66;98998.50;6027859;23;20093;-93
2023/11/22 07:59:54;;;;;;;15.55;11.00;;;;;;;10.99;71.32;98967.88;6027928;23;19998;-92
2023/11/22 08:02:20;;;;;;;17.35;11.38;;;;;;;11.17;71.72;98991.47;6072775;23;20013;-90
2023/11/22 08:04:48;;;;;;;16.45;10.40;;;;;;;11.12;71.51;98986.91;6075448;23;20069;-91
2023/11/22 08:07:14;;;;;;;15.90;11.00;;;;;;;11.07;70.48;98995.03;6050052;23;20022;-91
2023/11/22 08:09:43;;;;;;;21.08;11.85;;;;;;;11.09;70.38;98973.19;6051566;23;20010;-90
2023/11/22 08:12:13;;;;;;;25.58;16.48;;;;;;;11.24;70.55;98985.75;6051289;23;20077;-91
2023/11/22 08:14:40;;;;;;;19.58;12.13;;;;;;;11.30;70.38;99011.56;6049866;23;20470;-91
2023/11/22 08:17:06;;;;;;;22.08;11.45;;;;;;;11.33;70.19;99025.28;6087783;23;20002;-91
2023/11/22 08:19:31;;;;;;;17.00;10.27;;;;;;;11.48;69.42;99032.44;6117403;23;20044;-92
2023/11/22 08:21:57;;;;;;;21.73;12.18;;;;;;;11.26;69.29;98997.84;6089455;23;20001;-92
2023/11/22 08:24:26;;;;;;;19.42;11.85;;;;;;;11.45;68.83;99026.81;6115195;23;19997;-92
2023/11/22 08:26:52;;;;;;;17.52;11.32;;;;;;;11.58;68.81;99046.91;6112787;23;20032;-91
2023/11/22 08:29:17;;;;;;;18.83;11.30;;;;;;;11.48;68.56;99039.72;6164069;23;19997;-91
2023/11/22 08:31:43;;;;;;;21.50;12.90;;;;;;;11.48;69.22;99051.31;6110210;23;20017;-93
2023/11/22 08:34:11;;;;;;;22.10;12.68;;;;;;;11.41;69.88;99037.34;6085605;23;20002;-93
2023/11/22 08:36:37;;;;;;;21.17;12.23;;;;;;;11.37;70.00;99024.72;6085584;23;20353;-91
2023/11/22 08:39:06;;;;;;;17.05;11.73;;;;;;;11.71;69.45;99059.75;6110361;23;20001;-95
2023/11/22 08:41:40;;;;;;;15.90;11.20;;;;;;;11.65;69.40;99042.00;6116156;23;20001;-94
2023/11/22 08:44:09;;;;;;;18.45;12.05;;;;;;;11.63;69.39;99047.69;6087509;23;20001;-94
2023/11/22 08:50:29;;;;;;;;;;;;;;;;;;;;;
2023/11/22 08:53:05;;;;;;;;;;;;;;;;;;;;;
2023/11/22 08:56:05;;;;;;;20.60;12.20;;;;;;;11.36;69.62;99079.72;6114302;23;20045;-94
2023/11/22 08:58:36;;;;;;;21.45;13.15;;;;;;;11.31;68.23;99078.66;6111860;23;20073;-94
2023/11/22 09:01:07;;;;;;;25.95;17.92;;;;;;;11.28;69.54;99081.13;6086610;23;20084;-95
2023/11/22 09:03:43;;;;;;;;;;;;;;;;;;;;;
2023/11/22 09:10:01;;;;;;;22.20;14.38;;;;;;;11.45;68.96;99078.81;6059099;23;20007;-96
2023/11/22 09:44:54;;;;;;;26.60;16.83;;;;;;;10.84;71.58;99109.66;6237613;22;20031;-96
2023/11/22 09:57:25;;;;;;;27.65;17.13;;;;;;;10.78;72.13;99107.25;6136589;23;20017;-95
2023/11/22 10:00:13;;;;;;;30.27;17.70;;;;;;;10.79;72.77;99125.03;6088223;23;20034;-95
2023/11/22 10:37:31;;;;;;;23.67;14.30;;;;;;;11.49;72.13;99151.88;6237701;23;20031;-94
2023/11/22 10:40:05;;;;;;;25.52;16.25;;;;;;;11.41;70.94;99120.09;6210417;23;20068;-95
2023/11/22 10:42:38;;;;;;;35.35;19.08;;;;;;;11.40;70.73;99129.28;6157484;23;19996;-93
2023/11/22 10:45:17;;;;;;;29.90;16.80;;;;;;;11.52;70.58;99125.16;6156146;23;20076;-93
2023/11/22 10:48:09;;;;;;;30.88;17.95;;;;;;;11.45;72.26;99121.16;6159896;23;20024;-93
2023/11/22 10:50:34;;;;;;;42.90;20.27;;;;;;;11.50;69.81;99107.66;6155947;23;20048;-94
2023/11/22 10:53:03;;;;;;;31.33;17.17;;;;;;;11.41;69.71;99126.28;6156376;23;19997;-93
2023/11/22 10:55:45;;;;;;;;;;;;;;;;;;;;;
2023/11/22 11:01:09;;;;;;;28.15;16.15;;;;;;;11.13;71.45;99117.06;6126107;23;20002;-94
2023/11/22 11:06:17;;;;;;;25.50;16.08;;;;;;;11.32;71.94;99165.72;6221178;22;20024;-96
2023/11/22 11:08:43;;;;;;;25.95;15.85;;;;;;;11.13;72.11;99157.47;6176003;23;19996;-96
2023/11/22 11:11:36;;;;;;;29.85;16.92;;;;;;;11.23;71.26;99148.53;6197670;23;20001;-93
2023/11/22 11:14:07;;;;;;;30.80;17.40;;;;;;;11.47;72.54;99172.91;6146350;23;20005;-94
2023/11/22 11:16:48;;;;;;;27.17;15.45;;;;;;;11.29;73.10;99144.72;6174297;23;20067;-94
2023/11/22 11:19:52;;;;;;;;;;;;;;;;;;;;;
2023/11/22 11:22:09;;;;;;;27.42;16.58;;;;;;;11.43;72.13;99169.16;6195834;23;20005;-96
2023/11/22 11:24:44;;;;;;;30.40;17.58;;;;;;;11.28;71.62;99143.91;6146219;23;20005;-94
2023/11/22 11:27:10;;;;;;;34.10;16.52;;;;;;;11.39;70.78;99149.22;6174347;23;20087;-96
2023/11/22 11:29:43;;;;;;;30.67;17.63;;;;;;;11.44;70.74;99160.81;6170381;23;20000;-95
2023/11/22 11:32:34;;;;;;;33.38;16.15;;;;;;;11.21;72.03;99124.56;6197999;23;20000;-96
2023/11/22 11:35:01;;;;;;;29.92;17.00;;;;;;;11.29;71.71;99136.66;6148361;23;19997;-95
2023/11/22 11:37:29;;;;;;;29.38;16.80;;;;;;;11.34;71.30;99147.38;6148902;23;20000;-96
2023/11/22 11:39:55;;;;;;;29.35;15.43;;;;;;;11.24;71.26;99125.88;6146034;23;20015;-95
2023/11/22 11:42:20;;;;;;;33.08;17.52;;;;;;;11.35;71.79;99135.53;6174309;23;20036;-95
2023/11/22 11:45:12;;;;;;;32.20;16.67;;;;;;;11.23;73.16;99118.91;6171313;23;20378;-95
2023/11/22 11:47:38;;;;;;;29.30;17.42;;;;;;;11.23;72.78;99133.16;6164902;23;20000;-95
2023/11/22 11:50:07;;;;;;;28.30;16.17;;;;;;;11.32;72.47;99128.78;6147586;23;20007;-94
2023/11/22 11:52:35;;;;;;;29.70;16.90;;;;;;;11.31;72.88;99129.09;6152411;23;20016;-95
2023/11/22 11:58:10;;;;;;;27.38;15.55;;;;;;;11.46;72.29;99152.44;6221935;23;19962;-94
2023/11/22 12:00:40;;;;;;;28.70;15.95;;;;;;;11.36;72.21;99149.81;6170948;23;20005;-94
2023/11/22 12:03:12;;;;;;;28.98;15.73;;;;;;;11.25;72.46;99152.56;6148632;23;20088;-95
2023/11/22 12:05:38;;;;;;;;;;;;;;;11.29;72.88;99177.88;6154559;23;20068;-96
2023/11/22 12:08:09;;;;;;;29.45;15.43;;;;;;;11.18;73.19;99156.63;6196090;23;19958;-95
2023/11/22 12:10:37;;;;;;;30.55;16.95;;;;;;;11.25;73.30;99163.34;6172692;23;20036;-96
2023/11/22 12:13:03;;;;;;;28.98;18.00;;;;;;;11.34;72.48;99166.25;6146546;23;20001;-92
2023/11/22 12:15:32;;;;;;;29.23;18.05;;;;;;;11.35;73.37;99164.34;6167015;23;20474;-93
2023/11/22 12:17:59;;;;;;;33.72;18.40;;;;;;;11.40;73.32;99167.03;6169403;23;20099;-92
2023/11/22 12:20:26;;;;;;;33.53;19.50;;;;;;;11.31;72.83;99162.22;6167412;23;20004;-91
2023/11/22 12:23:24;;;;;;;30.52;17.50;;;;;;;11.54;72.88;99195.00;6165424;23;20001;-90
2023/11/22 12:26:01;;;;;;;27.80;16.58;;;;;;;11.35;72.44;99196.69;6160748;23;20004;-90
2023/11/22 12:28:27;;;;;;;29.35;16.40;;;;;;;11.20;72.85;99182.22;6188223;23;20500;-90
2023/11/22 12:30:59;;;;;;;28.83;16.98;;;;;;;11.05;72.66;99158.84;6194443;23;20049;-94
2023/11/22 12:33:25;;;;;;;30.83;18.08;;;;;;;11.22;72.86;99173.88;6169371;23;20040;-93
2023/11/22 12:35:51;;;;;;;29.58;17.23;;;;;;;11.26;73.05;99194.59;6167946;23;20004;-92
2023/11/22 12:38:16;;;;;;;30.85;16.05;;;;;;;11.28;73.18;99199.72;6193093;23;20031;-93
2023/11/22 12:40:48;;;;;;;33.08;18.80;;;;;;;11.30;73.21;99206.44;6144333;23;20207;-95
2023/11/22 12:43:17;;;;;;;30.63;17.65;;;;;;;11.39;72.75;99220.13;6169257;23;20007;-94
2023/11/22 12:46:00;;;;;;;31.92;18.00;;;;;;;11.06;73.29;99200.91;6170304;23;20007;-93
2023/11/22 12:48:32;;;;;;;32.28;18.33;;;;;;;11.00;73.03;99202.00;6146971;23;20058;-96
2023/11/22 12:50:58;;;;;;;28.55;15.88;;;;;;;10.82;73.74;99205.28;6169751;23;20008;-94
2023/11/22 12:53:25;;;;;;;30.30;15.77;;;;;;;10.87;73.60;99206.09;6144432;23;20035;-94
2023/11/22 12:55:52;;;;;;;28.20;15.90;;;;;;;10.86;74.07;99234.09;6143546;23;20011;-95
2023/11/22 12:58:39;;;;;;;27.60;16.85;;;;;;;10.89;74.65;99227.34;6167955;23;20000;-93
2023/11/22 13:01:34;;;;;;;29.60;15.48;;;;;;;10.94;74.16;99251.59;6145934;23;20001;-96
2023/11/22 13:04:00;;;;;;;27.13;15.35;;;;;;;10.79;74.75;99230.88;6158336;23;20015;-94
2023/11/22 13:06:26;;;;;;;32.42;16.38;;;;;;;10.93;74.70;99258.03;6167503;23;20024;-92
2023/11/22 13:09:02;;;;;;;36.50;20.63;;;;;;;10.91;74.10;99241.34;6193276;23;20007;-96
2023/11/22 13:11:28;;;;;;;26.90;15.02;;;;;;;11.03;74.49;99251.81;6168678;23;20004;-96
2023/11/22 13:13:57;;;;;;;25.92;14.13;;;;;;;11.16;74.29;99261.19;6168692;23;20000;-94
2023/11/22 13:16:28;;;;;;;28.60;14.85;;;;;;;10.79;74.95;99238.13;6144868;23;20010;-94
2023/11/22 13:21:43;;;;;;;28.70;15.82;;;;;;;10.75;74.98;99256.75;6179856;23;20347;-92